Terminal Aerodrome Forecast
Issued by NWS

Home | Current Version | Previous Version | Text Only | Print | Product List | Glossary On
Versions: 1 2 3 4 5 6 7 8 9 10 11 12 13 14
968
FTUS41 KBTV 190535
TAFMSS
TAF
KMSS 190535Z 1906/2006 06008KT 2SM BR VCSH OVC004
     FM191000 36008KT 3SM -RA BR OVC008
     FM191200 30013G21KT 4SM RA BR OVC010
     FM191500 27015G27KT 2SM -SHSN BR OVC015
     FM191800 27019G31KT P6SM VCSH OVC020
     FM192100 27017G28KT P6SM OVC025=

USA.gov is the U.S. government's official web portal to all federal, state and local government web resources and services.